Time;durP1;ratioP1;P1;durP2;ratioP2;P2;SDS_P1;SDS_P2;PMS_P1;PMS_P2;Temp;Humidity;BMP_temperature;BMP_pressure;BME280_temperature;BME280_humidity;BME280_pressure;Samples;Min_cycle;Max_cycle;Signal;HPM_P1;HPM_P2
2021/12/06 00:01:12;;;;;;;7.07;3.93;;;4.10;99.90;;;;;;5076938;28;20020;-80
2021/12/06 00:03:40;;;;;;;7.23;4.20;;;4.10;99.90;;;;;;5076140;28;20035;-80
2021/12/06 00:06:06;;;;;;;8.07;3.60;;;4.10;99.90;;;;;;5076450;28;20508;-80
2021/12/06 00:08:32;;;;;;;5.93;3.80;;;4.10;99.90;;;;;;5093806;28;20103;-81
2021/12/06 00:10:58;;;;;;;9.17;4.37;;;4.20;99.90;;;;;;5076471;28;20036;-80
2021/12/06 00:13:24;;;;;;;11.33;4.30;;;4.30;99.90;;;;;;5092011;28;20480;-81
2021/12/06 00:15:51;;;;;;;6.30;3.90;;;4.30;99.90;;;;;;5093204;28;20020;-81
2021/12/06 00:18:18;;;;;;;5.13;3.83;;;4.30;99.90;;;;;;5094322;28;20085;-80
2021/12/06 00:20:44;;;;;;;6.53;3.70;;;4.20;99.90;;;;;;5094465;28;20043;-81
2021/12/06 00:23:10;;;;;;;5.93;3.40;;;4.20;99.90;;;;;;5093252;28;20027;-81
2021/12/06 00:25:36;;;;;;;8.60;4.13;;;4.20;99.90;;;;;;5092358;28;20027;-81
2021/12/06 00:28:02;;;;;;;6.97;4.00;;;4.10;99.90;;;;;;5094215;28;20020;-81
2021/12/06 00:30:28;;;;;;;5.50;3.40;;;4.10;99.90;;;;;;5093768;28;20020;-81
2021/12/06 00:32:54;;;;;;;5.37;3.80;;;4.00;99.90;;;;;;5093076;28;20032;-80
2021/12/06 00:35:23;;;;;;;8.90;3.83;;;4.10;99.90;;;;;;5092557;28;20052;-82
2021/12/06 00:37:56;;;;;;;6.13;3.83;;;4.10;99.90;;;;;;5092986;28;20024;-81
2021/12/06 00:40:23;;;;;;;7.70;3.83;;;4.10;99.90;;;;;;5093636;28;20081;-81
2021/12/06 00:42:49;;;;;;;5.90;3.70;;;4.10;99.90;;;;;;5093022;28;20032;-81
2021/12/06 00:45:16;;;;;;;5.97;3.87;;;3.90;99.90;;;;;;5093112;28;20361;-80
2021/12/06 00:47:42;;;;;;;6.83;4.17;;;4.00;99.90;;;;;;5093361;28;20024;-81
2021/12/06 00:50:08;;;;;;;6.97;4.20;;;4.00;99.90;;;;;;5095545;28;20027;-80
2021/12/06 00:52:34;;;;;;;7.90;4.03;;;3.90;99.90;;;;;;5097548;28;20024;-80
2021/12/06 00:55:00;;;;;;;8.50;4.60;;;3.90;99.90;;;;;;5096727;28;20027;-81
2021/12/06 00:57:26;;;;;;;6.83;4.23;;;3.90;99.90;;;;;;5097370;28;20031;-81
2021/12/06 00:59:52;;;;;;;8.67;4.03;;;3.90;99.90;;;;;;5097505;28;20415;-81
2021/12/06 01:02:18;;;;;;;7.13;4.30;;;3.90;99.90;;;;;;5096917;28;20055;-81
2021/12/06 01:04:46;;;;;;;7.93;4.20;;;3.90;99.90;;;;;;5096285;28;20048;-80
2021/12/06 01:07:13;;;;;;;8.37;4.63;;;3.90;99.90;;;;;;5097122;28;20479;-81
2021/12/06 01:09:40;;;;;;;9.20;4.80;;;3.90;99.90;;;;;;5096183;28;20016;-81
2021/12/06 01:12:07;;;;;;;8.13;4.80;;;3.90;99.90;;;;;;5096228;28;20055;-80
2021/12/06 01:14:33;;;;;;;6.33;4.23;;;4.00;99.90;;;;;;5096002;28;20028;-81
2021/12/06 01:16:59;;;;;;;6.83;4.20;;;4.00;99.90;;;;;;5096461;28;20337;-81
2021/12/06 01:19:28;;;;;;;6.83;3.67;;;4.00;99.90;;;;;;5096037;28;20031;-81
2021/12/06 01:25:04;;;;;;;8.17;3.97;;;3.90;99.90;;;;;;5096803;28;20058;-81
2021/12/06 01:30:19;;;;;;;8.73;5.03;;;3.90;99.90;;;;;;5097570;28;20027;-81
2021/12/06 01:40:58;;;;;;;6.87;4.10;;;3.70;99.90;;;;;;5097180;28;20051;-80
2021/12/06 01:43:24;;;;;;;9.13;4.67;;;3.60;99.90;;;;;;5095667;28;20452;-81
2021/12/06 01:45:50;;;;;;;8.73;4.70;;;3.70;99.90;;;;;;5096975;28;20085;-81
2021/12/06 01:48:15;;;;;;;9.90;4.50;;;3.80;99.90;;;;;;5096986;28;20062;-81
2021/12/06 01:50:41;;;;;;;7.33;4.43;;;3.80;99.90;;;;;;5095412;28;20028;-79
2021/12/06 01:53:07;;;;;;;8.17;5.00;;;3.70;99.90;;;;;;5096067;28;20028;-81
2021/12/06 01:55:37;;;;;;;7.80;5.03;;;3.70;99.90;;;;;;5096460;28;20077;-81
2021/12/06 01:58:06;;;;;;;7.77;4.53;;;3.70;99.90;;;;;;5095834;28;20020;-79
2021/12/06 02:00:44;;;;;;;8.83;5.57;;;3.70;99.90;;;;;;5094725;28;20023;-81
2021/12/06 02:03:10;;;;;;;8.43;4.30;;;3.70;99.90;;;;;;5096501;28;20468;-81
2021/12/06 02:05:37;;;;;;;7.70;4.37;;;3.70;99.90;;;;;;5095324;28;20024;-80
2021/12/06 02:08:04;;;;;;;7.03;4.70;;;3.80;99.90;;;;;;5095755;28;20360;-80
2021/12/06 02:10:30;;;;;;;6.93;4.20;;;3.70;99.90;;;;;;5094903;28;20020;-81
2021/12/06 02:12:56;;;;;;;7.60;4.63;;;3.60;99.90;;;;;;5095403;28;20118;-81
2021/12/06 02:15:37;;;;;;;7.40;4.37;;;3.60;99.90;;;;;;5095168;28;20028;-80
2021/12/06 02:18:10;;;;;;;8.10;4.95;;;3.50;99.90;;;;;;5095516;28;20107;-80
2021/12/06 02:20:45;;;;;;;7.63;4.67;;;3.40;99.90;;;;;;5095052;28;20420;-81
2021/12/06 02:23:11;;;;;;;8.37;4.00;;;3.40;99.90;;;;;;5082734;28;20059;-80
2021/12/06 02:25:37;;;;;;;6.90;4.57;;;3.40;99.90;;;;;;5084541;28;20020;-81
2021/12/06 02:28:03;;;;;;;6.07;4.10;;;3.40;99.90;;;;;;5074084;28;20533;-80
2021/12/06 02:30:29;;;;;;;7.10;4.27;;;3.40;99.90;;;;;;5075520;28;20020;-81
2021/12/06 02:32:55;;;;;;;7.37;4.03;;;3.40;99.90;;;;;;5075810;28;20028;-80
2021/12/06 02:35:23;;;;;;;9.20;4.10;;;3.40;99.90;;;;;;5074793;28;20025;-80
2021/12/06 02:37:50;;;;;;;6.40;3.60;;;3.50;99.90;;;;;;5074396;28;20464;-80
2021/12/06 02:40:22;;;;;;;7.07;3.77;;;3.50;99.90;;;;;;5074627;28;20035;-80
2021/12/06 02:42:49;;;;;;;8.37;4.33;;;3.50;99.90;;;;;;5074955;28;20477;-81
2021/12/06 02:45:24;;;;;;;8.50;4.50;;;3.40;99.90;;;;;;5074667;28;20024;-80
2021/12/06 02:47:53;;;;;;;6.57;3.80;;;3.50;99.90;;;;;;5074247;28;20084;-81
2021/12/06 02:50:21;;;;;;;6.73;3.50;;;3.50;99.90;;;;;;5074528;28;20105;-80
2021/12/06 02:52:47;;;;;;;6.40;3.33;;;3.50;99.90;;;;;;5074822;28;20038;-81
2021/12/06 02:55:36;;;;;;;7.23;3.80;;;3.50;99.90;;;;;;5081730;28;20368;-80
2021/12/06 02:58:02;;;;;;;7.67;3.70;;;3.50;99.90;;;;;;5095021;28;20111;-80
2021/12/06 03:00:28;;;;;;;7.37;4.23;;;3.60;99.90;;;;;;5094002;28;20114;-81
2021/12/06 03:02:54;;;;;;;6.13;3.70;;;3.50;99.90;;;;;;5094694;28;20176;-81
2021/12/06 03:05:21;;;;;;;8.87;4.53;;;3.50;99.90;;;;;;5094686;28;20024;-80
2021/12/06 03:07:52;;;;;;;7.10;4.37;;;3.50;99.90;;;;;;5093984;28;20666;-81
2021/12/06 03:10:18;;;;;;;6.83;4.43;;;3.50;99.90;;;;;;5094421;28;20427;-80
2021/12/06 03:12:44;;;;;;;7.73;4.30;;;3.60;99.90;;;;;;5092552;28;20044;-81
2021/12/06 03:15:11;;;;;;;8.17;4.40;;;3.60;99.90;;;;;;5094423;28;20115;-81
2021/12/06 03:17:37;;;;;;;9.20;5.20;;;3.60;99.90;;;;;;5094031;28;20024;-81
2021/12/06 03:20:07;;;;;;;7.67;4.90;;;3.60;99.90;;;;;;5095331;28;20368;-81
2021/12/06 03:22:32;;;;;;;7.47;4.30;;;3.60;99.90;;;;;;5093643;28;20080;-81
2021/12/06 03:24:58;;;;;;;8.13;4.27;;;3.60;99.90;;;;;;5095107;28;20103;-81
2021/12/06 03:27:24;;;;;;;8.63;4.50;;;3.60;99.90;;;;;;5094900;28;20031;-81
2021/12/06 03:29:50;;;;;;;9.70;4.47;;;3.60;99.90;;;;;;5093821;28;20023;-81
2021/12/06 03:32:16;;;;;;;7.13;4.00;;;3.50;99.90;;;;;;5094033;28;20038;-80
2021/12/06 03:34:42;;;;;;;9.03;4.50;;;3.50;99.90;;;;;;5093213;28;20391;-81
2021/12/06 03:37:09;;;;;;;6.63;3.73;;;3.50;99.90;;;;;;5093834;28;20024;-81
2021/12/06 03:39:38;;;;;;;7.20;4.10;;;3.60;99.90;;;;;;5093270;28;20048;-81
2021/12/06 03:42:08;;;;;;;7.27;4.50;;;3.50;99.90;;;;;;5093828;28;20028;-81
2021/12/06 03:44:34;;;;;;;9.03;4.60;;;3.60;99.90;;;;;;5092988;28;20028;-81
2021/12/06 03:47:04;;;;;;;8.33;4.60;;;3.60;99.90;;;;;;5093535;28;20020;-80
2021/12/06 03:49:30;;;;;;;8.97;4.63;;;3.60;99.90;;;;;;5093528;28;20024;-82
2021/12/06 03:51:56;;;;;;;8.53;5.20;;;3.50;99.90;;;;;;5093766;28;20020;-80
2021/12/06 03:54:25;;;;;;;8.07;4.80;;;3.60;99.90;;;;;;5093362;28;20118;-81
2021/12/06 03:56:51;;;;;;;6.57;4.20;;;3.70;99.90;;;;;;5093881;28;20028;-81
2021/12/06 03:59:17;;;;;;;8.90;4.93;;;3.70;99.90;;;;;;5093585;28;20024;-80
2021/12/06 04:01:43;;;;;;;8.37;5.37;;;3.70;99.90;;;;;;5093042;28;20020;-81
2021/12/06 04:04:10;;;;;;;7.90;4.80;;;3.70;99.90;;;;;;5093301;28;20452;-81
2021/12/06 04:06:37;;;;;;;6.70;4.60;;;3.70;99.90;;;;;;5093860;28;20024;-81
2021/12/06 04:09:05;;;;;;;7.17;4.23;;;3.70;99.90;;;;;;5093470;28;20110;-81
2021/12/06 04:11:31;;;;;;;7.37;3.63;;;3.70;99.90;;;;;;5097811;28;20043;-82
2021/12/06 04:13:57;;;;;;;8.33;4.37;;;3.70;99.90;;;;;;5096650;28;20080;-81
2021/12/06 04:16:22;;;;;;;8.03;4.03;;;3.80;99.90;;;;;;5114714;28;20027;-80
2021/12/06 04:18:49;;;;;;;5.03;3.40;;;3.80;99.90;;;;;;5095966;28;20073;-80
2021/12/06 04:21:17;;;;;;;5.63;3.77;;;3.80;99.90;;;;;;5096726;28;20020;-80
2021/12/06 04:23:43;;;;;;;6.93;4.50;;;3.70;99.90;;;;;;5113841;28;20107;-81
2021/12/06 04:26:09;;;;;;;7.87;4.67;;;3.70;99.90;;;;;;5096256;28;20039;-81
2021/12/06 04:28:36;;;;;;;8.93;5.30;;;3.70;99.90;;;;;;5096018;28;20444;-80
2021/12/06 04:31:03;;;;;;;7.43;4.40;;;3.60;99.90;;;;;;5096447;28;20057;-81
2021/12/06 04:33:29;;;;;;;9.00;4.77;;;3.70;99.90;;;;;;5096701;28;20110;-81
2021/12/06 04:35:55;;;;;;;9.97;4.77;;;3.60;99.90;;;;;;5113964;28;20518;-80
2021/12/06 04:38:21;;;;;;;8.63;5.00;;;3.60;99.90;;;;;;5114405;28;20028;-80
2021/12/06 04:40:48;;;;;;;10.20;5.20;;;3.50;99.90;;;;;;5095776;28;20337;-81
2021/12/06 04:43:14;;;;;;;11.67;5.40;;;3.60;99.90;;;;;;5096062;28;20134;-81
2021/12/06 04:45:41;;;;;;;8.30;5.27;;;3.60;99.90;;;;;;5095778;28;20026;-79
2021/12/06 04:48:08;;;;;;;10.77;5.77;;;3.50;99.90;;;;;;5096376;28;20388;-81
2021/12/06 04:50:34;;;;;;;12.77;6.30;;;3.60;99.90;;;;;;5095848;28;20023;-81
2021/12/06 04:53:10;;;;;;;12.07;5.80;;;3.50;99.90;;;;;;5095964;28;20038;-81
2021/12/06 04:55:55;;;;;;;10.67;5.83;;;3.50;99.90;;;;;;5095479;28;20019;-80
2021/12/06 04:58:25;;;;;;;11.53;5.93;;;3.60;99.90;;;;;;5096333;28;20031;-80
2021/12/06 05:01:06;;;;;;;9.33;5.67;;;3.70;99.90;;;;;;5095892;28;20076;-81
2021/12/06 05:03:33;;;;;;;8.20;5.07;;;3.70;99.90;;;;;;5096349;28;20032;-80
2021/12/06 05:06:03;;;;;;;11.17;5.57;;;3.70;99.90;;;;;;5114160;28;20099;-81
2021/12/06 05:08:33;;;;;;;8.60;4.90;;;3.70;99.90;;;;;;5114347;28;20088;-81
2021/12/06 05:11:01;;;;;;;8.60;5.10;;;3.70;99.90;;;;;;5096047;28;20058;-80
2021/12/06 05:13:28;;;;;;;7.87;5.33;;;3.80;99.90;;;;;;5096179;28;20047;-80
2021/12/06 05:15:54;;;;;;;8.27;4.57;;;3.80;99.90;;;;;;5095887;28;20033;-80
2021/12/06 05:18:20;;;;;;;11.20;5.00;;;3.70;99.90;;;;;;5096108;28;20016;-79
2021/12/06 05:20:46;;;;;;;11.37;5.47;;;3.70;99.90;;;;;;5113656;28;20079;-80
2021/12/06 05:23:12;;;;;;;11.47;5.27;;;3.60;99.90;;;;;;5101319;28;20028;-80
2021/12/06 05:25:38;;;;;;;9.97;5.23;;;3.60;99.90;;;;;;5086249;28;20028;-81
2021/12/06 05:28:05;;;;;;;9.33;5.33;;;3.60;99.90;;;;;;5096130;28;20363;-80
2021/12/06 05:30:33;;;;;;;11.20;5.67;;;3.60;99.90;;;;;;5096037;28;20019;-80
2021/12/06 05:33:01;;;;;;;13.67;5.90;;;3.70;99.90;;;;;;5095671;28;20088;-81
2021/12/06 05:35:27;;;;;;;14.87;5.83;;;3.70;99.90;;;;;;5095851;28;20119;-80
2021/12/06 05:37:55;;;;;;;12.30;6.03;;;3.70;99.90;;;;;;5099150;28;20059;-80
2021/12/06 05:40:32;;;;;;;11.00;5.57;;;3.70;99.90;;;;;;5099413;28;20020;-80
2021/12/06 05:42:59;;;;;;;12.53;5.53;;;3.70;99.90;;;;;;5099182;28;20028;-80
2021/12/06 05:45:27;;;;;;;10.43;5.80;;;3.70;99.90;;;;;;5099369;28;20038;-80
2021/12/06 05:47:54;;;;;;;11.50;5.30;;;3.70;99.90;;;;;;5098920;28;20340;-80
2021/12/06 05:50:22;;;;;;;12.67;6.00;;;3.80;99.90;;;;;;5117464;28;20020;-80
2021/12/06 05:52:49;;;;;;;11.07;5.47;;;3.80;99.90;;;;;;5098823;28;20479;-81
2021/12/06 05:55:15;;;;;;;15.50;6.70;;;3.80;99.90;;;;;;5099106;28;20047;-80
2021/12/06 05:57:42;;;;;;;16.53;6.83;;;3.70;99.90;;;;;;5098793;28;20047;-81
2021/12/06 06:00:11;;;;;;;17.47;6.07;;;3.70;99.90;;;;;;5099192;28;20019;-80
2021/12/06 06:02:37;;;;;;;16.53;6.87;;;3.70;99.90;;;;;;5098341;28;20512;-81
2021/12/06 06:05:03;;;;;;;16.67;6.20;;;3.70;99.90;;;;;;5098795;28;20100;-80
2021/12/06 06:07:29;;;;;;;17.70;6.47;;;3.70;99.90;;;;;;5117049;28;20019;-80
2021/12/06 06:09:55;;;;;;;21.00;7.30;;;3.70;99.90;;;;;;5098405;28;20027;-80
2021/12/06 06:12:20;;;;;;;25.03;8.23;;;3.70;99.90;;;;;;5098585;28;20043;-79
2021/12/06 06:14:46;;;;;;;26.40;8.33;;;3.60;99.90;;;;;;5116532;28;20035;-80
2021/12/06 06:17:14;;;;;;;17.77;7.53;;;3.60;99.90;;;;;;5098849;28;20406;-80
2021/12/06 06:19:47;;;;;;;28.63;8.13;;;3.60;99.90;;;;;;5098024;28;20467;-81
2021/12/06 06:22:13;;;;;;;24.80;8.60;;;3.60;99.90;;;;;;5098663;28;20364;-80
2021/12/06 06:24:39;;;;;;;23.63;7.10;;;3.60;99.90;;;;;;5097904;28;20077;-81
2021/12/06 06:27:06;;;;;;;21.47;6.70;;;3.60;99.90;;;;;;5098274;28;20106;-80
2021/12/06 06:29:32;;;;;;;17.80;6.33;;;3.60;99.90;;;;;;5078582;28;20020;-80
2021/12/06 06:31:58;;;;;;;19.20;5.60;;;3.60;99.90;;;;;;5077775;28;20245;-80
2021/12/06 06:34:24;;;;;;;15.90;6.17;;;3.70;99.90;;;;;;5096188;28;20032;-80
2021/12/06 06:36:50;;;;;;;18.17;6.47;;;3.60;99.90;;;;;;5077600;28;20028;-81
2021/12/06 06:39:19;;;;;;;15.20;6.20;;;3.60;99.90;;;;;;5077684;28;20118;-80
2021/12/06 06:41:46;;;;;;;14.97;6.40;;;3.60;99.90;;;;;;5078080;28;20107;-80
2021/12/06 06:44:12;;;;;;;16.73;5.73;;;3.60;99.90;;;;;;5096125;28;20036;-80
2021/12/06 06:46:38;;;;;;;13.83;5.13;;;3.60;99.90;;;;;;5095930;28;20073;-79
2021/12/06 06:49:04;;;;;;;13.30;5.43;;;3.60;99.90;;;;;;5078096;28;20047;-81
2021/12/06 06:51:30;;;;;;;11.70;5.10;;;3.50;99.90;;;;;;5078033;28;20031;-79
2021/12/06 06:53:56;;;;;;;9.40;4.03;;;3.50;99.90;;;;;;5095013;28;20028;-80
2021/12/06 06:56:22;;;;;;;7.37;4.20;;;3.50;99.90;;;;;;5112866;28;20058;-80
2021/12/06 06:58:48;;;;;;;7.73;3.37;;;3.50;99.90;;;;;;5115722;28;20072;-81
2021/12/06 07:01:14;;;;;;;10.33;3.73;;;3.50;99.90;;;;;;5116568;28;20027;-80
2021/12/06 07:03:40;;;;;;;6.13;3.00;;;3.50;99.90;;;;;;5098042;28;20020;-83
2021/12/06 07:06:05;;;;;;;5.17;2.73;;;3.50;99.90;;;;;;5115891;28;20471;-80
2021/12/06 07:08:31;;;;;;;5.43;2.90;;;3.50;99.90;;;;;;5097908;28;20490;-81
2021/12/06 07:10:57;;;;;;;5.83;3.10;;;3.60;99.90;;;;;;5097229;28;20069;-81
2021/12/06 07:13:26;;;;;;;4.77;3.03;;;3.60;99.90;;;;;;5097609;28;20051;-80
2021/12/06 07:15:52;;;;;;;8.03;3.07;;;3.60;99.90;;;;;;5097083;28;20019;-80
2021/12/06 07:18:17;;;;;;;3.20;2.23;;;3.60;99.90;;;;;;5097831;28;20341;-81
2021/12/06 07:20:44;;;;;;;6.47;3.10;;;3.60;99.90;;;;;;5097179;28;20333;-81
2021/12/06 07:23:10;;;;;;;4.87;2.73;;;3.60;99.90;;;;;;5097422;28;20031;-80
2021/12/06 07:25:35;;;;;;;3.97;2.60;;;3.60;99.90;;;;;;5115603;28;20026;-80
2021/12/06 07:28:05;;;;;;;6.03;2.93;;;3.60;99.90;;;;;;5096930;28;20124;-80
2021/12/06 07:30:31;;;;;;;4.77;2.60;;;3.60;99.90;;;;;;5097378;28;20024;-80
2021/12/06 07:32:57;;;;;;;4.03;2.60;;;3.60;99.90;;;;;;5096247;28;20030;-80
2021/12/06 07:35:26;;;;;;;5.53;3.03;;;3.60;99.90;;;;;;5097310;28;20035;-79
2021/12/06 07:37:52;;;;;;;5.13;2.80;;;3.60;99.90;;;;;;5096777;28;20020;-80
2021/12/06 07:40:19;;;;;;;6.80;3.40;;;3.60;99.90;;;;;;5096788;28;20015;-80
2021/12/06 07:42:45;;;;;;;4.50;2.70;;;3.60;99.90;;;;;;5096378;28;20054;-80
2021/12/06 07:45:14;;;;;;;6.27;3.30;;;3.60;99.90;;;;;;5097131;28;20028;-80
2021/12/06 07:47:40;;;;;;;7.17;2.93;;;3.70;99.90;;;;;;5096805;28;20482;-80
2021/12/06 07:50:09;;;;;;;4.13;2.87;;;3.60;99.90;;;;;;5114660;28;20087;-80
2021/12/06 07:52:35;;;;;;;4.93;2.87;;;3.60;99.90;;;;;;5096922;28;20031;-79
2021/12/06 07:55:03;;;;;;;3.43;2.00;;;3.60;99.90;;;;;;5114205;28;20020;-80
2021/12/06 07:57:29;;;;;;;3.50;2.33;;;3.60;99.90;;;;;;5096731;28;20186;-80
2021/12/06 07:59:55;;;;;;;5.70;2.43;;;3.60;99.90;;;;;;5095954;28;20024;-80
2021/12/06 08:02:21;;;;;;;3.47;1.93;;;3.60;99.90;;;;;;5114784;28;20018;-80
2021/12/06 08:04:49;;;;;;;3.13;1.90;;;3.70;99.90;;;;;;5114599;28;20027;-81
2021/12/06 08:07:15;;;;;;;2.30;1.40;;;3.70;99.90;;;;;;5096627;28;20026;-80
2021/12/06 08:09:41;;;;;;;3.17;1.33;;;3.70;99.90;;;;;;5114714;28;20022;-80
2021/12/06 08:12:07;;;;;;;1.80;1.30;;;3.60;99.90;;;;;;5095938;28;20040;-80
2021/12/06 08:14:32;;;;;;;1.30;1.20;;;3.60;99.90;;;;;;5096839;28;20035;-79
2021/12/06 08:16:58;;;;;;;2.60;1.50;;;3.60;99.90;;;;;;5096459;28;20020;-80
2021/12/06 08:19:24;;;;;;;1.93;1.50;;;3.60;99.90;;;;;;5096567;28;20522;-80
2021/12/06 08:21:50;;;;;;;2.67;1.40;;;3.60;99.90;;;;;;5095989;28;20024;-80
2021/12/06 08:24:15;;;;;;;2.50;1.53;;;3.60;99.90;;;;;;5096703;28;20051;-80
2021/12/06 08:26:43;;;;;;;5.13;2.07;;;3.60;99.90;;;;;;5096287;28;20068;-80
2021/12/06 08:29:12;;;;;;;2.57;1.73;;;3.60;99.90;;;;;;5095753;28;20141;-79
2021/12/06 08:31:38;;;;;;;2.77;1.97;;;3.60;99.90;;;;;;5097626;28;20027;-80
2021/12/06 08:34:04;;;;;;;3.13;1.80;;;3.60;99.90;;;;;;5096195;28;20019;-80
2021/12/06 08:36:30;;;;;;;4.27;2.03;;;3.70;99.90;;;;;;5096496;28;20023;-81
2021/12/06 08:38:57;;;;;;;3.43;2.07;;;3.70;99.90;;;;;;5095884;28;20079;-81
2021/12/06 08:41:27;;;;;;;3.70;2.33;;;3.70;99.90;;;;;;5096440;28;20024;-81
2021/12/06 08:43:55;;;;;;;5.20;2.70;;;3.70;99.90;;;;;;5096159;28;20035;-81
2021/12/06 08:46:30;;;;;;;3.83;2.30;;;3.70;99.90;;;;;;5114610;28;20095;-81
2021/12/06 08:48:56;;;;;;;3.73;2.50;;;3.70;99.90;;;;;;5096341;28;20023;-81
2021/12/06 08:51:29;;;;;;;5.90;2.93;;;3.70;99.90;;;;;;5114492;28;20024;-81
2021/12/06 08:53:57;;;;;;;5.30;2.60;;;3.70;99.90;;;;;;5095774;28;20024;-79
2021/12/06 08:56:23;;;;;;;4.07;2.13;;;3.70;99.90;;;;;;5096305;28;20076;-80
2021/12/06 08:58:49;;;;;;;3.67;2.07;;;3.60;99.90;;;;;;5095950;28;20031;-81
2021/12/06 09:01:16;;;;;;;6.13;2.40;;;3.60;99.90;;;;;;5096408;28;20026;-81
2021/12/06 09:03:42;;;;;;;3.30;2.20;;;3.70;99.90;;;;;;5114509;28;20024;-81
2021/12/06 09:06:09;;;;;;;4.73;2.30;;;3.70;99.90;;;;;;5113803;28;20521;-81
2021/12/06 09:08:37;;;;;;;3.33;2.10;;;3.70;99.90;;;;;;5096141;28;20020;-81
2021/12/06 09:11:04;;;;;;;3.90;2.23;;;3.80;99.90;;;;;;5095995;28;20024;-80
2021/12/06 09:13:31;;;;;;;5.70;2.67;;;3.80;99.90;;;;;;5099607;28;20110;-81
2021/12/06 09:15:59;;;;;;;3.67;1.97;;;3.80;99.90;;;;;;5117394;28;20024;-81
2021/12/06 09:18:26;;;;;;;6.43;2.73;;;3.80;99.90;;;;;;5099867;28;20019;-81
2021/12/06 09:20:53;;;;;;;4.77;2.70;;;3.80;99.90;;;;;;5099597;28;20016;-81
2021/12/06 09:23:19;;;;;;;5.87;2.93;;;3.90;99.90;;;;;;5100283;28;20110;-81
2021/12/06 09:25:46;;;;;;;5.83;3.07;;;3.90;99.90;;;;;;5117734;28;20047;-79
2021/12/06 09:28:16;;;;;;;6.57;3.53;;;3.90;99.90;;;;;;5117820;28;20012;-81
2021/12/06 09:30:43;;;;;;;8.80;3.60;;;4.00;99.90;;;;;;5099747;28;20020;-80
2021/12/06 09:33:12;;;;;;;5.83;3.27;;;4.00;99.90;;;;;;5099371;28;20037;-81
2021/12/06 09:35:41;;;;;;;5.87;3.40;;;4.10;99.90;;;;;;5099621;28;20023;-79
2021/12/06 09:38:08;;;;;;;8.87;4.37;;;4.00;99.90;;;;;;5116810;28;20019;-80
2021/12/06 09:40:36;;;;;;;9.43;4.67;;;4.10;99.90;;;;;;5099560;28;20024;-80
2021/12/06 09:43:05;;;;;;;9.50;4.57;;;4.10;99.90;;;;;;5099047;28;20085;-81
2021/12/06 09:45:32;;;;;;;7.50;4.40;;;4.20;99.90;;;;;;5099139;28;20077;-80
2021/12/06 09:48:01;;;;;;;8.03;3.87;;;4.10;99.90;;;;;;5117076;28;20023;-80
2021/12/06 09:50:40;;;;;;;8.43;4.00;;;4.20;99.90;;;;;;5099251;28;20019;-81
2021/12/06 09:53:09;;;;;;;10.57;4.10;;;4.10;99.90;;;;;;5098897;28;20110;-81
2021/12/06 09:55:36;;;;;;;9.80;4.60;;;4.10;99.90;;;;;;5099310;28;20024;-79
2021/12/06 09:58:04;;;;;;;9.97;4.37;;;4.00;99.90;;;;;;5098492;28;20164;-80
2021/12/06 10:00:38;;;;;;;13.97;5.80;;;4.10;99.90;;;;;;5098926;28;20061;-79
2021/12/06 10:03:04;;;;;;;14.80;7.87;;;4.20;99.90;;;;;;5116856;28;20102;-80
2021/12/06 10:05:30;;;;;;;12.40;6.03;;;4.20;99.90;;;;;;5099153;28;20108;-79
2021/12/06 10:07:58;;;;;;;14.80;6.83;;;4.30;99.90;;;;;;5098545;28;20015;-80
2021/12/06 10:10:25;;;;;;;18.93;7.90;;;4.40;99.90;;;;;;5098857;28;20110;-80
2021/12/06 10:12:54;;;;;;;20.63;8.27;;;4.40;99.90;;;;;;5094365;28;20047;-82
2021/12/06 10:15:21;;;;;;;25.53;9.40;;;4.40;99.90;;;;;;5096267;28;20174;-80
2021/12/06 10:17:47;;;;;;;22.40;8.90;;;4.40;99.90;;;;;;5095334;28;20467;-81
2021/12/06 10:20:13;;;;;;;20.43;8.90;;;4.40;99.90;;;;;;5094927;28;20027;-81
2021/12/06 10:22:39;;;;;;;23.10;9.67;;;4.40;99.90;;;;;;5096005;28;20093;-82
2021/12/06 10:25:06;;;;;;;20.77;8.77;;;4.40;99.90;;;;;;5095760;28;20059;-81
2021/12/06 10:27:32;;;;;;;22.43;8.87;;;4.30;99.90;;;;;;5091361;28;20059;-81
2021/12/06 10:30:07;;;;;;;21.03;9.23;;;4.40;99.90;;;;;;5074539;28;20464;-81
2021/12/06 10:32:36;;;;;;;22.37;9.17;;;4.40;99.90;;;;;;5075519;28;20103;-81
2021/12/06 10:35:16;;;;;;;22.13;8.77;;;4.40;99.90;;;;;;5073821;28;20426;-82
2021/12/06 10:37:52;;;;;;;20.70;8.87;;;4.50;99.90;;;;;;5075908;28;20024;-81
2021/12/06 10:40:22;;;;;;;16.67;8.57;;;4.60;99.90;;;;;;5074671;28;20021;-80
2021/12/06 10:42:50;;;;;;;18.87;8.80;;;4.60;99.90;;;;;;5075485;28;20036;-81
2021/12/06 10:45:19;;;;;;;14.90;7.33;;;4.60;99.90;;;;;;5074325;28;20464;-82
2021/12/06 10:48:09;;;;;;;13.07;7.13;;;4.60;99.90;;;;;;5074701;28;20016;-81
2021/12/06 10:50:38;;;;;;;14.07;6.53;;;4.50;99.90;;;;;;5074596;28;20334;-81
2021/12/06 10:53:04;;;;;;;14.70;6.70;;;4.50;99.90;;;;;;5075429;28;20107;-80
2021/12/06 10:55:32;;;;;;;15.27;6.90;;;4.50;99.90;;;;;;5082025;28;20047;-79
2021/12/06 10:58:06;;;;;;;17.60;7.87;;;4.50;99.90;;;;;;5081040;28;20036;-80
2021/12/06 11:01:00;;;;;;;14.67;6.93;;;4.50;99.90;;;;;;5085842;28;20051;-81
2021/12/06 11:03:42;;;;;;;11.60;6.13;;;4.60;99.90;;;;;;5075488;28;20036;-81
2021/12/06 11:06:18;;;;;;;11.95;5.57;;;4.50;99.90;;;;;;5090780;28;20103;-81
2021/12/06 11:08:46;;;;;;;12.33;6.33;;;4.50;99.90;;;;;;5075237;28;20059;-81
2021/12/06 11:11:20;;;;;;;13.20;6.57;;;4.60;99.90;;;;;;5089310;28;20024;-81
2021/12/06 11:13:53;;;;;;;12.47;5.60;;;4.60;99.90;;;;;;5100973;28;20039;-80
2021/12/06 11:16:30;;;;;;;15.13;6.93;;;4.60;99.90;;;;;;5095172;28;20027;-81
2021/12/06 11:19:04;;;;;;;11.93;5.90;;;4.70;99.90;;;;;;5075932;28;20221;-81
2021/12/06 11:21:51;;;;;;;9.90;5.27;;;4.60;99.90;;;;;;5099292;28;20024;-80
2021/12/06 11:24:18;;;;;;;11.23;5.10;;;4.60;99.90;;;;;;5094352;28;20084;-81
2021/12/06 11:26:50;;;;;;;11.33;5.37;;;4.50;99.90;;;;;;5090767;28;20054;-81
2021/12/06 11:29:20;;;;;;;10.80;5.22;;;4.50;99.90;;;;;;5095914;28;20034;-81
2021/12/06 11:32:03;;;;;;;12.00;5.70;;;4.50;99.90;;;;;;5085357;28;20087;-81
2021/12/06 11:34:33;;;;;;;10.47;4.97;;;4.50;99.90;;;;;;5087672;28;20039;-81
2021/12/06 11:36:59;;;;;;;11.90;6.37;;;4.50;99.90;;;;;;5076668;28;20020;-81
2021/12/06 11:39:25;;;;;;;10.47;5.50;;;4.60;99.90;;;;;;5088116;28;20468;-80
2021/12/06 11:41:55;;;;;;;13.97;5.77;;;4.60;99.90;;;;;;5101134;28;20024;-81
2021/12/06 11:44:31;;;;;;;11.77;5.77;;;4.70;99.90;;;;;;5079959;28;20035;-80
2021/12/06 11:47:04;;;;;;;12.40;5.40;;;4.70;99.90;;;;;;5089698;28;20058;-82
2021/12/06 11:49:33;;;;;;;12.47;5.90;;;4.70;99.90;;;;;;5084828;28;20042;-82
2021/12/06 11:52:00;;;;;;;10.60;5.67;;;4.80;99.90;;;;;;5075150;28;20024;-81
2021/12/06 11:54:33;;;;;;;9.20;4.63;;;4.80;99.90;;;;;;5088680;28;20093;-82
2021/12/06 11:57:01;;;;;;;9.57;5.07;;;5.00;99.90;;;;;;5090928;28;20103;-81
2021/12/06 11:59:26;;;;;;;10.30;4.70;;;5.00;99.90;;;;;;5091616;28;20031;-81
2021/12/06 12:01:55;;;;;;;8.60;4.43;;;5.10;99.90;;;;;;5083133;28;20019;-81
2021/12/06 12:04:24;;;;;;;9.37;5.10;;;5.10;99.90;;;;;;5079910;28;20047;-81
2021/12/06 12:07:00;;;;;;;9.67;4.60;;;5.30;99.90;;;;;;5107973;28;20028;-82
2021/12/06 12:09:34;;;;;;;7.93;4.53;;;5.40;99.90;;;;;;5079216;28;20122;-81
2021/12/06 12:12:22;;;;;;;9.20;5.37;;;5.60;99.90;;;;;;5099554;28;20055;-81
2021/12/06 12:14:58;;;;;;;8.30;4.43;;;5.80;99.90;;;;;;5089911;28;20092;-82
2021/12/06 12:17:34;;;;;;;11.30;4.57;;;5.90;99.90;;;;;;5078984;28;20102;-82
2021/12/06 12:20:04;;;;;;;10.90;4.40;;;6.10;99.90;;;;;;5082205;28;20028;-82
2021/12/06 12:22:30;;;;;;;6.40;3.13;;;6.10;99.90;;;;;;5081455;28;20054;-81
2021/12/06 12:25:04;;;;;;;9.17;3.80;;;6.10;99.90;;;;;;5093136;28;20374;-84
2021/12/06 12:27:41;;;;;;;6.17;3.47;;;6.00;99.90;;;;;;5088167;28;20025;-82
2021/12/06 12:30:08;;;;;;;10.17;4.33;;;5.80;99.90;;;;;;5081117;28;20032;-82
2021/12/06 12:32:34;;;;;;;10.40;4.27;;;5.80;99.90;;;;;;5106313;28;20528;-82
2021/12/06 12:35:05;;;;;;;7.80;3.80;;;5.80;99.90;;;;;;5108020;28;20023;-82
2021/12/06 12:37:34;;;;;;;6.77;3.60;;;5.80;99.90;;;;;;5079908;28;20106;-82
2021/12/06 12:40:10;;;;;;;7.77;3.40;;;5.80;99.90;;;;;;5092652;28;20028;-82
2021/12/06 12:42:36;;;;;;;5.50;3.30;;;5.80;99.90;;;;;;5092837;28;20038;-82
2021/12/06 12:45:05;;;;;;;5.63;3.30;;;5.70;99.90;;;;;;5077104;28;20032;-82
2021/12/06 12:47:33;;;;;;;5.53;3.00;;;5.80;99.90;;;;;;5089992;28;20020;-82
2021/12/06 12:50:11;;;;;;;7.50;3.00;;;5.90;99.90;;;;;;5087128;28;20464;-83
2021/12/06 12:52:48;;;;;;;5.20;2.83;;;6.00;99.90;;;;;;5088382;28;20424;-82
2021/12/06 12:55:29;;;;;;;6.00;2.80;;;6.10;99.90;;;;;;5097409;28;20027;-82
2021/12/06 12:58:15;;;;;;;7.85;3.50;;;6.20;99.80;;;;;;5087496;28;20051;-82
2021/12/06 13:00:53;;;;;;;6.00;3.30;;;6.40;99.70;;;;;;5097811;28;20114;-82
2021/12/06 13:03:33;;;;;;;7.43;3.50;;;6.50;99.40;;;;;;5081303;28;20110;-83
2021/12/06 13:06:23;;;;;;;8.90;3.57;;;6.60;99.40;;;;;;5096742;28;20027;-83
2021/12/06 13:08:55;;;;;;;8.30;3.10;;;6.80;99.30;;;;;;5098688;28;20031;-83
2021/12/06 13:11:50;;;;;;;7.67;3.13;;;6.90;99.20;;;;;;5108901;28;20372;-83
2021/12/06 13:14:27;;;;;;;4.30;2.63;;;6.80;98.70;;;;;;5089142;28;20380;-83